sensor_id;sensor_type;location;lat;lon;timestamp;pressure;altitude;pressure_sealevel;temperature;humidity
64294;BME280;50636;45.596;5.258;2023-01-25T00:02:21;100035.72;;;8.42;56.83
64294;BME280;50636;45.596;5.258;2023-01-25T00:04:47;100025.75;;;8.45;56.20
64294;BME280;50636;45.596;5.258;2023-01-25T00:07:13;100020.81;;;8.42;55.90
64294;BME280;50636;45.596;5.258;2023-01-25T00:09:38;100029.19;;;8.28;55.89
64294;BME280;50636;45.596;5.258;2023-01-25T00:12:04;100025.94;;;8.08;56.08
64294;BME280;50636;45.596;5.258;2023-01-25T00:14:30;100026.31;;;7.95;55.71
64294;BME280;50636;45.596;5.258;2023-01-25T00:16:55;100023.84;;;7.93;56.49
64294;BME280;50636;45.596;5.258;2023-01-25T00:19:21;100027.00;;;7.97;56.84
64294;BME280;50636;45.596;5.258;2023-01-25T00:21:48;100019.88;;;8.07;56.59
64294;BME280;50636;45.596;5.258;2023-01-25T00:24:13;100022.66;;;8.06;56.65
64294;BME280;50636;45.596;5.258;2023-01-25T00:26:39;100018.75;;;7.92;57.31
64294;BME280;50636;45.596;5.258;2023-01-25T00:29:05;100009.38;;;7.99;57.57
64294;BME280;50636;45.596;5.258;2023-01-25T00:31:39;100011.19;;;8.07;57.27
64294;BME280;50636;45.596;5.258;2023-01-25T00:39:25;100003.22;;;7.90;58.46
64294;BME280;50636;45.596;5.258;2023-01-25T00:41:51;100004.78;;;8.19;58.50
64294;BME280;50636;45.596;5.258;2023-01-25T00:44:16;99999.00;;;8.33;57.70
64294;BME280;50636;45.596;5.258;2023-01-25T00:46:42;100001.69;;;8.24;57.75
64294;BME280;50636;45.596;5.258;2023-01-25T00:49:28;99998.78;;;8.27;58.79
64294;BME280;50636;45.596;5.258;2023-01-25T00:51:56;100001.81;;;8.40;57.23
64294;BME280;50636;45.596;5.258;2023-01-25T00:54:22;99996.81;;;8.29;57.40
64294;BME280;50636;45.596;5.258;2023-01-25T00:56:48;99997.19;;;8.34;56.88
64294;BME280;50636;45.596;5.258;2023-01-25T00:59:16;99997.75;;;8.19;56.63
64294;BME280;50636;45.596;5.258;2023-01-25T01:01:42;100002.47;;;7.98;56.68
64294;BME280;50636;45.596;5.258;2023-01-25T01:04:07;99996.00;;;7.84;57.85
64294;BME280;50636;45.596;5.258;2023-01-25T01:06:37;100000.94;;;7.87;57.57
64294;BME280;50636;45.596;5.258;2023-01-25T01:09:05;99997.34;;;7.70;58.87
64294;BME280;50636;45.596;5.258;2023-01-25T01:11:31;100000.84;;;7.79;58.97
64294;BME280;50636;45.596;5.258;2023-01-25T01:13:58;99993.22;;;7.86;58.24
64294;BME280;50636;45.596;5.258;2023-01-25T01:16:24;99994.50;;;7.82;58.64
64294;BME280;50636;45.596;5.258;2023-01-25T01:18:50;99998.66;;;7.92;57.96
64294;BME280;50636;45.596;5.258;2023-01-25T01:21:16;100000.09;;;7.87;57.14
64294;BME280;50636;45.596;5.258;2023-01-25T01:23:41;100001.38;;;7.65;57.15
64294;BME280;50636;45.596;5.258;2023-01-25T01:26:10;100005.75;;;7.64;58.00
64294;BME280;50636;45.596;5.258;2023-01-25T01:28:36;100003.91;;;7.74;57.85
64294;BME280;50636;45.596;5.258;2023-01-25T01:31:07;99997.13;;;7.64;57.37
64294;BME280;50636;45.596;5.258;2023-01-25T01:33:33;100003.31;;;7.45;57.62
64294;BME280;50636;45.596;5.258;2023-01-25T01:36:09;100005.00;;;7.36;57.93
64294;BME280;50636;45.596;5.258;2023-01-25T01:38:35;100003.63;;;7.32;57.98
64294;BME280;50636;45.596;5.258;2023-01-25T01:41:00;99995.81;;;7.32;58.78
64294;BME280;50636;45.596;5.258;2023-01-25T01:43:26;100010.03;;;7.19;58.80
64294;BME280;50636;45.596;5.258;2023-01-25T01:45:55;100004.38;;;7.24;59.21
64294;BME280;50636;45.596;5.258;2023-01-25T01:48:42;100001.34;;;7.29;58.72
64294;BME280;50636;45.596;5.258;2023-01-25T01:54:35;100003.22;;;7.36;59.01
64294;BME280;50636;45.596;5.258;2023-01-25T01:57:50;99987.84;;;7.33;58.63
64294;BME280;50636;45.596;5.258;2023-01-25T02:00:05;99993.59;;;7.37;59.54
64294;BME280;50636;45.596;5.258;2023-01-25T02:02:48;99994.50;;;7.64;59.79
64294;BME280;50636;45.596;5.258;2023-01-25T02:05:29;99991.16;;;7.89;59.42
64294;BME280;50636;45.596;5.258;2023-01-25T02:07:58;99989.63;;;8.05;59.28
64294;BME280;50636;45.596;5.258;2023-01-25T02:10:26;99991.63;;;8.11;58.84
64294;BME280;50636;45.596;5.258;2023-01-25T02:12:54;99978.94;;;8.16;58.95
64294;BME280;50636;45.596;5.258;2023-01-25T02:15:20;99979.13;;;8.23;59.33
64294;BME280;50636;45.596;5.258;2023-01-25T02:17:46;99984.88;;;8.26;59.00
64294;BME280;50636;45.596;5.258;2023-01-25T02:23:15;99971.75;;;8.18;58.59
64294;BME280;50636;45.596;5.258;2023-01-25T02:25:44;99974.25;;;8.02;58.94
64294;BME280;50636;45.596;5.258;2023-01-25T02:28:11;99971.16;;;8.06;59.10
64294;BME280;50636;45.596;5.258;2023-01-25T02:30:40;99975.16;;;7.92;59.06
64294;BME280;50636;45.596;5.258;2023-01-25T02:33:06;99972.19;;;7.87;59.04
64294;BME280;50636;45.596;5.258;2023-01-25T02:35:41;99973.28;;;7.85;59.29
64294;BME280;50636;45.596;5.258;2023-01-25T02:38:10;99978.22;;;7.70;59.33
64294;BME280;50636;45.596;5.258;2023-01-25T02:40:44;99973.00;;;7.70;60.08
64294;BME280;50636;45.596;5.258;2023-01-25T02:43:11;99973.59;;;7.64;59.28
64294;BME280;50636;45.596;5.258;2023-01-25T02:45:37;99979.09;;;7.60;59.86
64294;BME280;50636;45.596;5.258;2023-01-25T02:48:02;99977.00;;;7.46;60.10
64294;BME280;50636;45.596;5.258;2023-01-25T02:50:28;99974.16;;;7.22;59.85
64294;BME280;50636;45.596;5.258;2023-01-25T02:52:54;99974.75;;;7.15;60.73
64294;BME280;50636;45.596;5.258;2023-01-25T02:55:19;99962.59;;;7.24;60.71
64294;BME280;50636;45.596;5.258;2023-01-25T02:57:45;99958.44;;;7.31;61.19
64294;BME280;50636;45.596;5.258;2023-01-25T03:00:11;99956.03;;;7.20;61.22
64294;BME280;50636;45.596;5.258;2023-01-25T03:02:37;99956.78;;;7.12;61.63
64294;BME280;50636;45.596;5.258;2023-01-25T03:05:02;99957.19;;;7.08;60.77
64294;BME280;50636;45.596;5.258;2023-01-25T03:07:28;99951.38;;;7.14;62.14
64294;BME280;50636;45.596;5.258;2023-01-25T03:09:54;99943.16;;;7.36;62.05
64294;BME280;50636;45.596;5.258;2023-01-25T03:12:19;99945.06;;;7.52;61.46
64294;BME280;50636;45.596;5.258;2023-01-25T03:14:45;99950.75;;;7.66;61.63
64294;BME280;50636;45.596;5.258;2023-01-25T03:17:10;99941.78;;;7.68;60.90
64294;BME280;50636;45.596;5.258;2023-01-25T03:19:36;99944.72;;;7.65;60.75
64294;BME280;50636;45.596;5.258;2023-01-25T03:22:02;99941.63;;;7.34;60.42
64294;BME280;50636;45.596;5.258;2023-01-25T03:24:28;99936.84;;;7.11;61.80
64294;BME280;50636;45.596;5.258;2023-01-25T03:26:53;99928.63;;;6.88;62.06
64294;BME280;50636;45.596;5.258;2023-01-25T03:29:37;99928.41;;;6.72;62.69
64294;BME280;50636;45.596;5.258;2023-01-25T03:32:03;99929.72;;;6.86;63.30
64294;BME280;50636;45.596;5.258;2023-01-25T03:34:29;99916.56;;;7.23;63.12
64294;BME280;50636;45.596;5.258;2023-01-25T03:36:55;99914.41;;;7.54;62.02
64294;BME280;50636;45.596;5.258;2023-01-25T03:39:20;99914.31;;;7.28;61.19
64294;BME280;50636;45.596;5.258;2023-01-25T03:41:46;99923.53;;;6.87;61.47
64294;BME280;50636;45.596;5.258;2023-01-25T03:44:11;99923.09;;;6.64;62.37
64294;BME280;50636;45.596;5.258;2023-01-25T03:46:38;99917.50;;;6.58;63.33
64294;BME280;50636;45.596;5.258;2023-01-25T03:49:05;99918.75;;;6.54;62.89
64294;BME280;50636;45.596;5.258;2023-01-25T03:51:30;99920.94;;;6.49;63.34
64294;BME280;50636;45.596;5.258;2023-01-25T03:53:56;99917.88;;;6.64;63.75
64294;BME280;50636;45.596;5.258;2023-01-25T03:56:22;99925.56;;;6.93;64.18
64294;BME280;50636;45.596;5.258;2023-01-25T03:58:48;99924.44;;;6.95;62.03
64294;BME280;50636;45.596;5.258;2023-01-25T04:01:13;99914.78;;;6.78;63.93
64294;BME280;50636;45.596;5.258;2023-01-25T04:03:39;99912.88;;;6.98;64.11
64294;BME280;50636;45.596;5.258;2023-01-25T04:06:05;99906.72;;;7.17;62.90
64294;BME280;50636;45.596;5.258;2023-01-25T04:08:31;99899.09;;;7.06;62.77
64294;BME280;50636;45.596;5.258;2023-01-25T04:11:05;99901.97;;;6.85;62.33
64294;BME280;50636;45.596;5.258;2023-01-25T04:13:31;99911.97;;;6.62;63.12
64294;BME280;50636;45.596;5.258;2023-01-25T04:15:59;99910.91;;;6.54;63.64
64294;BME280;50636;45.596;5.258;2023-01-25T04:18:25;99899.41;;;6.47;63.33
64294;BME280;50636;45.596;5.258;2023-01-25T04:20:52;99899.03;;;6.42;63.95
64294;BME280;50636;45.596;5.258;2023-01-25T04:23:18;99900.84;;;6.59;64.83
64294;BME280;50636;45.596;5.258;2023-01-25T04:26:00;99899.00;;;6.97;64.80
64294;BME280;50636;45.596;5.258;2023-01-25T04:28:27;99900.31;;;7.29;63.59
64294;BME280;50636;45.596;5.258;2023-01-25T04:30:55;99910.16;;;7.35;62.80
64294;BME280;50636;45.596;5.258;2023-01-25T04:33:20;99908.38;;;7.36;62.15
64294;BME280;50636;45.596;5.258;2023-01-25T04:35:46;99897.50;;;7.40;62.42
64294;BME280;50636;45.596;5.258;2023-01-25T04:38:12;99900.00;;;7.50;62.05
64294;BME280;50636;45.596;5.258;2023-01-25T04:40:38;99902.31;;;7.35;61.74
64294;BME280;50636;45.596;5.258;2023-01-25T04:43:03;99901.59;;;7.43;62.58
64294;BME280;50636;45.596;5.258;2023-01-25T04:45:31;99905.09;;;7.52;62.56
64294;BME280;50636;45.596;5.258;2023-01-25T04:47:59;99897.16;;;7.62;62.12
64294;BME280;50636;45.596;5.258;2023-01-25T04:50:26;99897.38;;;7.68;61.18
64294;BME280;50636;45.596;5.258;2023-01-25T04:52:52;99898.81;;;7.63;61.25
64294;BME280;50636;45.596;5.258;2023-01-25T04:55:18;99891.28;;;7.59;60.77
64294;BME280;50636;45.596;5.258;2023-01-25T04:57:44;99896.97;;;7.55;60.84
64294;BME280;50636;45.596;5.258;2023-01-25T05:00:10;99888.38;;;7.45;60.37
64294;BME280;50636;45.596;5.258;2023-01-25T05:02:36;99877.94;;;7.27;60.54
64294;BME280;50636;45.596;5.258;2023-01-25T05:05:02;99878.53;;;7.20;60.32
64294;BME280;50636;45.596;5.258;2023-01-25T05:07:28;99874.81;;;7.23;60.83
64294;BME280;50636;45.596;5.258;2023-01-25T05:09:53;99884.44;;;7.40;60.83
64294;BME280;50636;45.596;5.258;2023-01-25T05:12:19;99882.16;;;7.46;61.30
64294;BME280;50636;45.596;5.258;2023-01-25T05:14:44;99887.44;;;7.72;61.74
64294;BME280;50636;45.596;5.258;2023-01-25T05:17:10;99885.84;;;7.97;60.83
64294;BME280;50636;45.596;5.258;2023-01-25T05:19:36;99887.31;;;7.99;59.99
64294;BME280;50636;45.596;5.258;2023-01-25T05:22:03;99888.59;;;7.95;60.08
64294;BME280;50636;45.596;5.258;2023-01-25T05:24:33;99889.16;;;8.07;60.27
64294;BME280;50636;45.596;5.258;2023-01-25T05:26:59;99899.25;;;8.28;59.88
64294;BME280;50636;45.596;5.258;2023-01-25T05:29:36;99890.22;;;8.23;58.69
64294;BME280;50636;45.596;5.258;2023-01-25T05:32:17;99884.91;;;8.06;58.75
64294;BME280;50636;45.596;5.258;2023-01-25T05:34:43;99876.09;;;8.07;58.90
64294;BME280;50636;45.596;5.258;2023-01-25T05:37:12;99878.09;;;8.13;59.33
64294;BME280;50636;45.596;5.258;2023-01-25T05:39:37;99872.13;;;8.29;59.38
64294;BME280;50636;45.596;5.258;2023-01-25T05:42:10;99864.97;;;8.39;59.44
64294;BME280;50636;45.596;5.258;2023-01-25T05:44:37;99861.13;;;8.52;59.23
64294;BME280;50636;45.596;5.258;2023-01-25T05:47:02;99864.91;;;8.57;59.00
64294;BME280;50636;45.596;5.258;2023-01-25T05:49:28;99869.00;;;8.60;58.64
64294;BME280;50636;45.596;5.258;2023-01-25T05:51:54;99867.56;;;8.66;58.53
64294;BME280;50636;45.596;5.258;2023-01-25T05:54:19;99872.91;;;8.56;58.32
64294;BME280;50636;45.596;5.258;2023-01-25T05:56:46;99867.31;;;8.51;58.04
64294;BME280;50636;45.596;5.258;2023-01-25T05:59:13;99858.81;;;8.49;58.12
64294;BME280;50636;45.596;5.258;2023-01-25T06:01:38;99865.19;;;8.46;57.68
64294;BME280;50636;45.596;5.258;2023-01-25T06:04:04;99867.94;;;8.45;57.88
64294;BME280;50636;45.596;5.258;2023-01-25T06:06:30;99865.38;;;8.53;58.10
64294;BME280;50636;45.596;5.258;2023-01-25T06:08:55;99875.88;;;8.61;58.02
64294;BME280;50636;45.596;5.258;2023-01-25T06:11:22;99872.47;;;8.69;58.31
64294;BME280;50636;45.596;5.258;2023-01-25T06:13:48;99875.28;;;8.75;57.88
64294;BME280;50636;45.596;5.258;2023-01-25T06:16:15;99864.78;;;8.67;57.26
64294;BME280;50636;45.596;5.258;2023-01-25T06:18:42;99870.47;;;8.63;57.57
64294;BME280;50636;45.596;5.258;2023-01-25T06:21:08;99868.53;;;8.65;57.38
64294;BME280;50636;45.596;5.258;2023-01-25T06:23:34;99874.91;;;8.62;57.21
64294;BME280;50636;45.596;5.258;2023-01-25T06:26:02;99863.91;;;8.50;57.12
64294;BME280;50636;45.596;5.258;2023-01-25T06:28:30;99877.53;;;8.36;57.18
64294;BME280;50636;45.596;5.258;2023-01-25T06:31:05;99878.22;;;8.12;57.51
64294;BME280;50636;45.596;5.258;2023-01-25T06:33:31;99875.72;;;8.02;57.74
64294;BME280;50636;45.596;5.258;2023-01-25T06:36:11;99879.00;;;8.04;58.01
64294;BME280;50636;45.596;5.258;2023-01-25T06:38:38;99872.81;;;8.05;57.50
64294;BME280;50636;45.596;5.258;2023-01-25T06:41:06;99868.50;;;7.96;58.04
64294;BME280;50636;45.596;5.258;2023-01-25T06:43:33;99863.13;;;7.97;58.98
64294;BME280;50636;45.596;5.258;2023-01-25T06:45:59;99862.75;;;7.92;58.26
64294;BME280;50636;45.596;5.258;2023-01-25T06:48:26;99865.06;;;7.69;59.00
64294;BME280;50636;45.596;5.258;2023-01-25T06:50:56;99856.91;;;7.72;60.00
64294;BME280;50636;45.596;5.258;2023-01-25T06:53:24;99862.34;;;7.79;59.63
64294;BME280;50636;45.596;5.258;2023-01-25T06:56:16;99858.84;;;7.70;59.97
64294;BME280;50636;45.596;5.258;2023-01-25T06:58:42;99868.59;;;7.86;59.97
64294;BME280;50636;45.596;5.258;2023-01-25T07:01:13;99859.06;;;8.03;60.08
64294;BME280;50636;45.596;5.258;2023-01-25T07:03:39;99863.41;;;8.20;60.16
64294;BME280;50636;45.596;5.258;2023-01-25T07:06:07;99859.53;;;8.33;59.65
64294;BME280;50636;45.596;5.258;2023-01-25T07:08:33;99852.84;;;8.38;59.41
64294;BME280;50636;45.596;5.258;2023-01-25T07:11:01;99858.47;;;8.44;59.11
64294;BME280;50636;45.596;5.258;2023-01-25T07:13:29;99856.03;;;8.50;58.84
64294;BME280;50636;45.596;5.258;2023-01-25T07:15:56;99861.75;;;8.46;58.76
64294;BME280;50636;45.596;5.258;2023-01-25T07:18:23;99857.34;;;8.46;58.76
64294;BME280;50636;45.596;5.258;2023-01-25T07:20:49;99856.25;;;8.31;58.42
64294;BME280;50636;45.596;5.258;2023-01-25T07:23:15;99856.53;;;8.19;58.57
64294;BME280;50636;45.596;5.258;2023-01-25T07:25:45;99863.31;;;8.04;58.38
64294;BME280;50636;45.596;5.258;2023-01-25T07:28:12;99868.97;;;7.91;58.18
64294;BME280;50636;45.596;5.258;2023-01-25T07:30:37;99859.56;;;7.80;58.71
64294;BME280;50636;45.596;5.258;2023-01-25T07:33:03;99855.56;;;7.68;59.52
64294;BME280;50636;45.596;5.258;2023-01-25T07:35:30;99862.53;;;7.59;58.64
64294;BME280;50636;45.596;5.258;2023-01-25T07:37:56;99863.28;;;7.34;58.65
64294;BME280;50636;45.596;5.258;2023-01-25T07:40:22;99855.91;;;7.29;58.85
64294;BME280;50636;45.596;5.258;2023-01-25T07:42:52;99859.72;;;7.17;59.46
64294;BME280;50636;45.596;5.258;2023-01-25T07:45:18;99856.38;;;7.07;59.74
64294;BME280;50636;45.596;5.258;2023-01-25T07:47:44;99848.97;;;7.20;60.67
64294;BME280;50636;45.596;5.258;2023-01-25T07:50:11;99851.75;;;7.36;60.63
64294;BME280;50636;45.596;5.258;2023-01-25T07:52:36;99857.59;;;7.56;60.03
64294;BME280;50636;45.596;5.258;2023-01-25T07:55:02;99859.25;;;7.57;59.81
64294;BME280;50636;45.596;5.258;2023-01-25T07:57:28;99853.81;;;7.51;59.61
64294;BME280;50636;45.596;5.258;2023-01-25T07:59:54;99853.09;;;7.40;59.67
64294;BME280;50636;45.596;5.258;2023-01-25T08:02:19;99844.88;;;7.35;59.54
64294;BME280;50636;45.596;5.258;2023-01-25T08:04:45;99848.31;;;7.18;59.96
64294;BME280;50636;45.596;5.258;2023-01-25T08:07:12;99848.56;;;7.25;60.38
64294;BME280;50636;45.596;5.258;2023-01-25T08:09:39;99840.81;;;7.59;60.72
64294;BME280;50636;45.596;5.258;2023-01-25T08:12:06;99847.25;;;7.91;60.49
64294;BME280;50636;45.596;5.258;2023-01-25T08:14:31;99841.66;;;8.20;59.81
64294;BME280;50636;45.596;5.258;2023-01-25T08:16:57;99840.31;;;8.42;58.89
64294;BME280;50636;45.596;5.258;2023-01-25T08:19:23;99833.88;;;8.36;58.12
64294;BME280;50636;45.596;5.258;2023-01-25T08:21:50;99837.31;;;8.37;58.28
64294;BME280;50636;45.596;5.258;2023-01-25T08:24:16;99834.97;;;8.52;58.52
64294;BME280;50636;45.596;5.258;2023-01-25T08:26:41;99828.09;;;8.59;57.33
64294;BME280;50636;45.596;5.258;2023-01-25T08:29:09;99834.41;;;8.40;57.19
64294;BME280;50636;45.596;5.258;2023-01-25T08:31:35;99836.63;;;8.27;57.37
64294;BME280;50636;45.596;5.258;2023-01-25T08:34:02;99830.91;;;8.23;57.85
64294;BME280;50636;45.596;5.258;2023-01-25T08:36:28;99833.84;;;8.28;57.99
64294;BME280;50636;45.596;5.258;2023-01-25T08:38:55;99824.81;;;8.49;58.27
64294;BME280;50636;45.596;5.258;2023-01-25T08:41:21;99830.94;;;8.66;57.38
64294;BME280;50636;45.596;5.258;2023-01-25T08:43:47;99829.13;;;8.66;56.54
64294;BME280;50636;45.596;5.258;2023-01-25T08:46:15;99828.34;;;8.39;56.25
64294;BME280;50636;45.596;5.258;2023-01-25T08:48:41;99829.41;;;8.20;57.26
64294;BME280;50636;45.596;5.258;2023-01-25T08:51:08;99835.28;;;8.23;57.75
64294;BME280;50636;45.596;5.258;2023-01-25T08:53:34;99837.25;;;8.20;57.07
64294;BME280;50636;45.596;5.258;2023-01-25T08:56:08;99835.06;;;8.08;57.57
64294;BME280;50636;45.596;5.258;2023-01-25T08:58:37;99835.19;;;7.98;57.38
64294;BME280;50636;45.596;5.258;2023-01-25T09:01:05;99830.00;;;8.06;57.89
64294;BME280;50636;45.596;5.258;2023-01-25T09:03:34;99828.28;;;8.23;57.84
64294;BME280;50636;45.596;5.258;2023-01-25T09:05:59;99829.16;;;8.40;57.34
64294;BME280;50636;45.596;5.258;2023-01-25T09:08:25;99829.59;;;8.53;57.21
64294;BME280;50636;45.596;5.258;2023-01-25T09:10:51;99829.06;;;8.50;56.68
64294;BME280;50636;45.596;5.258;2023-01-25T09:13:16;99826.69;;;8.38;56.57
64294;BME280;50636;45.596;5.258;2023-01-25T09:15:42;99825.53;;;8.33;56.76
64294;BME280;50636;45.596;5.258;2023-01-25T09:18:09;99818.28;;;8.18;56.43
64294;BME280;50636;45.596;5.258;2023-01-25T09:20:37;99822.28;;;8.05;56.85
64294;BME280;50636;45.596;5.258;2023-01-25T09:23:03;99816.41;;;8.03;57.16
64294;BME280;50636;45.596;5.258;2023-01-25T09:25:28;99827.25;;;8.16;57.64
64294;BME280;50636;45.596;5.258;2023-01-25T09:27:54;99821.25;;;8.24;57.22
64294;BME280;50636;45.596;5.258;2023-01-25T09:30:19;99821.13;;;8.33;57.30
64294;BME280;50636;45.596;5.258;2023-01-25T09:32:48;99829.72;;;8.52;57.28
64294;BME280;50636;45.596;5.258;2023-01-25T09:35:14;99822.91;;;8.67;57.05
64294;BME280;50636;45.596;5.258;2023-01-25T09:37:40;99825.88;;;8.89;57.15
64294;BME280;50636;45.596;5.258;2023-01-25T09:40:22;99834.75;;;9.04;56.68
64294;BME280;50636;45.596;5.258;2023-01-25T09:45:33;99828.72;;;9.12;55.76
64294;BME280;50636;45.596;5.258;2023-01-25T09:48:09;99824.78;;;9.08;55.19
64294;BME280;50636;45.596;5.258;2023-01-25T09:53:27;99832.28;;;9.03;54.34
64294;BME280;50636;45.596;5.258;2023-01-25T09:55:59;99833.09;;;8.87;54.62
64294;BME280;50636;45.596;5.258;2023-01-25T09:58:36;99828.16;;;8.75;54.94
64294;BME280;50636;45.596;5.258;2023-01-25T10:06:21;99836.94;;;8.24;56.29
64294;BME280;50636;45.596;5.258;2023-01-25T10:09:22;99839.78;;;8.38;56.33
64294;BME280;50636;45.596;5.258;2023-01-25T10:11:44;99833.22;;;8.69;55.99
64294;BME280;50636;45.596;5.258;2023-01-25T10:14:15;99824.72;;;8.83;54.89
64294;BME280;50636;45.596;5.258;2023-01-25T10:22:14;99825.69;;;8.66;54.71
64294;BME280;50636;45.596;5.258;2023-01-25T10:24:57;99822.91;;;8.67;54.08
64294;BME280;50636;45.596;5.258;2023-01-25T10:30:29;99811.44;;;8.60;53.98
64294;BME280;50636;45.596;5.258;2023-01-25T10:32:59;99808.66;;;8.53;54.13
64294;BME280;50636;45.596;5.258;2023-01-25T10:35:31;99812.75;;;8.56;54.56
64294;BME280;50636;45.596;5.258;2023-01-25T10:38:25;99800.34;;;8.74;54.20
64294;BME280;50636;45.596;5.258;2023-01-25T10:40:58;99802.31;;;8.89;53.64
64294;BME280;50636;45.596;5.258;2023-01-25T10:43:26;99799.72;;;8.97;53.06
64294;BME280;50636;45.596;5.258;2023-01-25T10:45:52;99796.28;;;8.88;53.23
64294;BME280;50636;45.596;5.258;2023-01-25T10:48:34;99785.97;;;8.95;53.15
64294;BME280;50636;45.596;5.258;2023-01-25T10:51:01;99794.63;;;8.87;52.68
64294;BME280;50636;45.596;5.258;2023-01-25T10:53:34;99794.97;;;8.92;52.93
64294;BME280;50636;45.596;5.258;2023-01-25T10:56:10;99784.34;;;9.02;52.22
64294;BME280;50636;45.596;5.258;2023-01-25T10:58:47;99794.31;;;8.90;51.76
64294;BME280;50636;45.596;5.258;2023-01-25T11:01:31;99790.38;;;8.86;52.09
64294;BME280;50636;45.596;5.258;2023-01-25T11:03:57;99788.44;;;8.96;51.89
64294;BME280;50636;45.596;5.258;2023-01-25T11:08:58;99772.56;;;9.06;51.86
64294;BME280;50636;45.596;5.258;2023-01-25T11:11:35;99780.59;;;9.05;51.56
64294;BME280;50636;45.596;5.258;2023-01-25T11:14:14;99769.94;;;9.14;51.45
64294;BME280;50636;45.596;5.258;2023-01-25T11:16:44;99769.13;;;9.22;51.06
64294;BME280;50636;45.596;5.258;2023-01-25T11:19:40;99776.00;;;9.15;50.73
64294;BME280;50636;45.596;5.258;2023-01-25T11:22:26;99775.69;;;9.10;50.59
64294;BME280;50636;45.596;5.258;2023-01-25T11:24:53;99769.59;;;9.01;50.97
64294;BME280;50636;45.596;5.258;2023-01-25T11:27:22;99753.25;;;8.91;50.87
64294;BME280;50636;45.596;5.258;2023-01-25T11:30:13;99756.34;;;8.86;50.68
64294;BME280;50636;45.596;5.258;2023-01-25T11:32:40;99749.31;;;8.78;50.81
64294;BME280;50636;45.596;5.258;2023-01-25T11:35:21;99748.34;;;8.79;50.79
64294;BME280;50636;45.596;5.258;2023-01-25T11:38:11;99740.97;;;8.83;50.64
64294;BME280;50636;45.596;5.258;2023-01-25T11:40:49;99732.31;;;8.83;50.28
64294;BME280;50636;45.596;5.258;2023-01-25T11:54:29;99709.38;;;9.09;49.73
64294;BME280;50636;45.596;5.258;2023-01-25T12:02:38;99691.56;;;8.96;50.42
64294;BME280;50636;45.596;5.258;2023-01-25T12:05:27;99688.94;;;8.96;50.17
64294;BME280;50636;45.596;5.258;2023-01-25T12:11:05;99681.56;;;8.59;50.22
64294;BME280;50636;45.596;5.258;2023-01-25T12:16:42;99670.94;;;8.52;50.63
64294;BME280;50636;45.596;5.258;2023-01-25T12:19:27;99665.72;;;8.52;50.25
64294;BME280;50636;45.596;5.258;2023-01-25T12:22:19;99666.72;;;8.59;50.67
64294;BME280;50636;45.596;5.258;2023-01-25T12:35:45;99636.94;;;8.69;50.69
64294;BME280;50636;45.596;5.258;2023-01-25T12:43:57;99636.94;;;8.77;50.68
64294;BME280;50636;45.596;5.258;2023-01-25T12:46:33;99636.28;;;8.67;50.50
64294;BME280;50636;45.596;5.258;2023-01-25T12:49:05;99630.25;;;8.66;51.33
64294;BME280;50636;45.596;5.258;2023-01-25T12:51:36;99632.69;;;8.76;50.78
64294;BME280;50636;45.596;5.258;2023-01-25T12:54:28;99628.13;;;8.70;51.11
64294;BME280;50636;45.596;5.258;2023-01-25T12:57:04;99627.63;;;8.74;50.65
64294;BME280;50636;45.596;5.258;2023-01-25T12:59:43;99617.28;;;8.81;50.37
64294;BME280;50636;45.596;5.258;2023-01-25T13:05:26;99611.59;;;8.61;50.65
64294;BME280;50636;45.596;5.258;2023-01-25T13:08:13;99616.34;;;8.66;50.08
64294;BME280;50636;45.596;5.258;2023-01-25T13:10:46;99616.50;;;8.56;50.16
64294;BME280;50636;45.596;5.258;2023-01-25T13:13:21;99607.13;;;8.29;50.35
64294;BME280;50636;45.596;5.258;2023-01-25T13:15:47;99601.25;;;8.10;50.63
64294;BME280;50636;45.596;5.258;2023-01-25T13:20:57;99591.13;;;7.99;51.69
64294;BME280;50636;45.596;5.258;2023-01-25T13:23:35;99594.88;;;8.13;52.20
64294;BME280;50636;45.596;5.258;2023-01-25T13:28:46;99589.34;;;8.57;50.91
64294;BME280;50636;45.596;5.258;2023-01-25T13:37:01;99584.84;;;9.07;49.35
64294;BME280;50636;45.596;5.258;2023-01-25T13:44:36;99574.50;;;8.57;48.89
64294;BME280;50636;45.596;5.258;2023-01-25T13:47:09;99564.34;;;8.46;49.23
64294;BME280;50636;45.596;5.258;2023-01-25T13:49:40;99564.63;;;8.35;48.76
64294;BME280;50636;45.596;5.258;2023-01-25T13:52:06;99562.69;;;8.29;49.49
64294;BME280;50636;45.596;5.258;2023-01-25T13:54:32;99564.66;;;8.27;49.48
64294;BME280;50636;45.596;5.258;2023-01-25T13:57:06;99565.94;;;8.23;50.21
64294;BME280;50636;45.596;5.258;2023-01-25T13:59:35;99554.19;;;8.35;49.72
64294;BME280;50636;45.596;5.258;2023-01-25T14:02:01;99555.34;;;8.49;49.67
64294;BME280;50636;45.596;5.258;2023-01-25T14:04:28;99555.50;;;8.64;49.32
64294;BME280;50636;45.596;5.258;2023-01-25T14:06:59;99558.78;;;8.66;48.82
64294;BME280;50636;45.596;5.258;2023-01-25T14:09:34;99559.56;;;8.74;48.47
64294;BME280;50636;45.596;5.258;2023-01-25T14:12:02;99566.25;;;8.85;48.95
64294;BME280;50636;45.596;5.258;2023-01-25T14:14:32;99563.94;;;8.98;48.39
64294;BME280;50636;45.596;5.258;2023-01-25T14:17:14;99564.09;;;8.97;47.72
64294;BME280;50636;45.596;5.258;2023-01-25T14:19:42;99564.56;;;9.00;47.77
64294;BME280;50636;45.596;5.258;2023-01-25T14:22:25;99571.09;;;9.05;47.25
64294;BME280;50636;45.596;5.258;2023-01-25T14:25:10;99574.34;;;9.15;47.65
64294;BME280;50636;45.596;5.258;2023-01-25T14:27:46;99565.81;;;9.21;47.30
64294;BME280;50636;45.596;5.258;2023-01-25T14:30:24;99572.34;;;9.25;46.59
64294;BME280;50636;45.596;5.258;2023-01-25T14:32:53;99573.00;;;9.27;46.81
64294;BME280;50636;45.596;5.258;2023-01-25T14:35:45;99567.09;;;9.25;46.49
64294;BME280;50636;45.596;5.258;2023-01-25T14:38:21;99559.13;;;9.18;46.89
64294;BME280;50636;45.596;5.258;2023-01-25T14:40:48;99563.22;;;9.13;46.96
64294;BME280;50636;45.596;5.258;2023-01-25T14:43:16;99560.00;;;9.03;46.53
64294;BME280;50636;45.596;5.258;2023-01-25T14:45:42;99555.56;;;9.03;45.94
64294;BME280;50636;45.596;5.258;2023-01-25T14:48:36;99555.78;;;8.85;46.26
64294;BME280;50636;45.596;5.258;2023-01-25T14:53:49;99553.00;;;8.78;46.77
64294;BME280;50636;45.596;5.258;2023-01-25T14:56:36;99557.94;;;8.82;46.15
64294;BME280;50636;45.596;5.258;2023-01-25T14:59:05;99564.09;;;8.89;46.10